KHWD

Hayward Executive Airport

Hayward, California, USA
METAR KHWD 231554Z 36003KT 10SM CLR 05/M04 A3036 RMK AO2 SLP291 T00501039
Observed Flight Rules
Feb-23 @ 15:54 UTC (46 minutes ago) Visual Flight Rules
Wind Visibility Clouds
360° at 3 knots 10 miles
  • Clear skies
Temperatures Readings
Current 5°C / 41°F
Dewpoint -4°C / 25°F
Humidity 53%
Altimeter 30.36" Hg
Pressure 1029.1 hPa
Elevation 21
METAR KHWD 231554Z 36003KT 10SM CLR 05/M04 A3036 RMK AO2 SLP291 T00501039
Observed Flight Rules
Feb-23 @ 15:54 UTC
(46 minutes ago)
VFR
Wind Visibility
360° at 3 knots 10 miles
Clouds
  • Clear skies
Temperature Dewpoint
5°C / 41°F -4°C / 25°F
Humidity Altimeter Pressure
53% 30.36" Hg 1029.1 hPa